createdAt,value
2022-11-04T00:01:22.697Z,19.33
2022-11-04T00:03:50.286Z,19.67
2022-11-04T00:06:19.319Z,21.90
2022-11-04T00:08:50.258Z,21.25
2022-11-04T00:11:35.297Z,21.77
2022-11-04T00:14:03.133Z,19.52
2022-11-04T00:16:48.354Z,21.55
2022-11-04T00:19:16.274Z,22.75
2022-11-04T00:22:02.967Z,20.98
2022-11-04T00:24:48.059Z,21.30
2022-11-04T00:27:34.953Z,21.88
2022-11-04T00:30:03.224Z,25.38
2022-11-04T00:32:50.219Z,25.95
2022-11-04T00:35:18.378Z,22.55
2022-11-04T00:37:47.335Z,22.15
2022-11-04T00:40:17.033Z,24.90
2022-11-04T00:42:46.349Z,18.92
2022-11-04T00:45:14.114Z,23.98
2022-11-04T00:47:41.658Z,20.83
2022-11-04T00:50:09.997Z,25.88
2022-11-04T00:52:37.555Z,26.33
2022-11-04T00:55:07.838Z,23.58
2022-11-04T00:57:35.377Z,23.52
2022-11-04T01:00:02.927Z,22.50
2022-11-04T01:02:30.558Z,23.65
2022-11-04T01:04:58.173Z,20.95
2022-11-04T01:07:25.733Z,26.17
2022-11-04T01:09:53.277Z,19.50
2022-11-04T01:12:22.226Z,25.10
2022-11-04T01:14:50.373Z,24.63
2022-11-04T01:17:18.112Z,24.23
2022-11-04T01:19:45.642Z,21.80
2022-11-04T01:22:13.221Z,24.90
2022-11-04T01:24:40.765Z,20.95
2022-11-04T01:27:08.327Z,24.48
2022-11-04T01:29:37.267Z,22.73
2022-11-04T01:32:04.981Z,23.50
2022-11-04T01:34:32.558Z,22.35
2022-11-04T01:37:00.117Z,22.50
2022-11-04T01:39:27.885Z,23.25
2022-11-04T01:41:55.463Z,30.92
2022-11-04T01:44:51.108Z,24.17
2022-11-04T01:47:20.770Z,28.42
2022-11-04T01:49:51.594Z,27.45
2022-11-04T01:52:23.703Z,17.15
2022-11-04T01:54:54.583Z,24.20
2022-11-04T01:57:27.111Z,18.17
2022-11-04T01:59:57.769Z,18.33
2022-11-04T02:02:25.433Z,19.27
2022-11-04T02:04:53.069Z,15.85
2022-11-04T02:07:21.255Z,15.25
2022-11-04T02:09:48.845Z,15.13
2022-11-04T02:12:34.140Z,15.93
2022-11-04T02:15:03.981Z,15.45
2022-11-04T02:17:47.047Z,14.85
2022-11-04T02:20:32.856Z,14.43
2022-11-04T02:23:43.899Z,15.25
2022-11-04T02:26:56.066Z,14.18
2022-11-04T02:29:35.053Z,13.17
2022-11-04T02:32:13.438Z,13.35
2022-11-04T02:34:50.264Z,14.07
2022-11-04T02:37:31.118Z,13.75
2022-11-04T02:40:14.422Z,12.15
2022-11-04T02:42:49.170Z,12.25
2022-11-04T02:45:22.778Z,13.03
2022-11-04T02:47:55.356Z,12.73
2022-11-04T02:50:30.878Z,11.43
2022-11-04T02:53:03.266Z,11.27
2022-11-04T02:55:36.343Z,11.20
2022-11-04T02:58:09.411Z,10.70
2022-11-04T03:00:42.758Z,9.80
2022-11-04T03:03:13.507Z,7.45
2022-11-04T03:05:45.565Z,6.97
2022-11-04T03:08:16.498Z,7.15
2022-11-04T03:10:49.030Z,6.03
2022-11-04T03:13:20.224Z,5.83
2022-11-04T03:15:52.007Z,5.25
2022-11-04T03:18:25.751Z,5.95
2022-11-04T03:20:57.706Z,6.53
2022-11-04T03:23:25.804Z,4.70
2022-11-04T03:25:58.947Z,4.25
2022-11-04T03:28:38.295Z,4.43
2022-11-04T03:31:11.292Z,4.70
2022-11-04T03:33:44.746Z,4.35
2022-11-04T03:36:12.423Z,4.25
2022-11-04T03:38:40.218Z,3.58
2022-11-04T03:41:16.237Z,4.67
2022-11-04T03:43:43.877Z,3.97
2022-11-04T03:46:13.470Z,4.15
2022-11-04T03:48:41.938Z,4.27
2022-11-04T03:51:10.122Z,4.00
2022-11-04T03:53:37.832Z,3.80
2022-11-04T03:56:23.467Z,3.77
2022-11-04T03:59:07.036Z,4.55
2022-11-04T04:01:46.621Z,4.23
2022-11-04T04:04:21.400Z,4.40
2022-11-04T04:06:52.677Z,4.10
2022-11-04T04:09:24.413Z,4.07
2022-11-04T04:11:56.326Z,4.47
2022-11-04T04:14:40.572Z,4.13
2022-11-04T04:17:16.881Z,5.53
2022-11-04T04:19:49.106Z,5.85
2022-11-04T04:22:21.732Z,5.90
2022-11-04T04:25:11.242Z,5.80
2022-11-04T04:27:40.587Z,8.20
2022-11-04T04:30:10.492Z,6.97
2022-11-04T04:32:42.898Z,11.50
2022-11-04T04:35:29.410Z,6.75
2022-11-04T04:38:19.887Z,6.57
2022-11-04T04:41:12.212Z,7.72
2022-11-04T04:44:01.026Z,5.17
2022-11-04T04:46:29.293Z,8.98
2022-11-04T04:49:05.025Z,7.07
2022-11-04T04:51:33.389Z,6.72
2022-11-04T04:54:00.923Z,6.88
2022-11-04T04:56:28.445Z,6.93
2022-11-04T04:58:56.016Z,4.97
2022-11-04T05:01:23.810Z,5.45
2022-11-04T05:03:51.556Z,4.80
2022-11-04T05:06:20.506Z,6.45
2022-11-04T05:08:48.073Z,3.90
2022-11-04T05:11:15.656Z,4.80
2022-11-04T05:13:43.167Z,4.17
2022-11-04T05:16:11.940Z,4.60
2022-11-04T05:18:39.531Z,4.77
2022-11-04T05:21:08.658Z,6.63
2022-11-04T05:23:38.224Z,4.93
2022-11-04T05:26:06.500Z,4.97
2022-11-04T05:28:34.156Z,5.63
2022-11-04T05:31:04.900Z,10.57
2022-11-04T05:33:32.502Z,7.50
2022-11-04T05:36:07.647Z,5.33
2022-11-04T05:38:35.223Z,6.57
2022-11-04T05:41:04.160Z,12.00
2022-11-04T05:43:32.601Z,7.10
2022-11-04T05:46:00.455Z,22.90
2022-11-04T05:48:28.018Z,20.73
2022-11-04T05:50:56.418Z,10.68
2022-11-04T05:53:23.997Z,9.50
2022-11-04T05:55:51.590Z,18.97
2022-11-04T05:58:20.478Z,10.48
2022-11-04T06:00:48.016Z,18.95
2022-11-04T06:03:16.496Z,17.23
2022-11-04T06:05:44.243Z,9.13
2022-11-04T06:08:12.032Z,10.00
2022-11-04T06:10:39.784Z,10.13
2022-11-04T06:13:07.308Z,20.10
2022-11-04T06:15:36.210Z,25.48
2022-11-04T06:18:03.763Z,29.10
2022-11-04T06:20:31.296Z,19.93
2022-11-04T06:22:58.821Z,17.00
2022-11-04T06:25:26.333Z,17.73
2022-11-04T06:27:53.856Z,18.83
2022-11-04T06:30:21.400Z,11.20
2022-11-04T06:32:50.305Z,17.80
2022-11-04T06:35:17.910Z,7.13
2022-11-04T06:37:45.412Z,15.32
2022-11-04T06:40:13.262Z,22.45
2022-11-04T06:42:42.820Z,8.87
2022-11-04T06:45:11.796Z,7.47
2022-11-04T06:47:39.321Z,16.50
2022-11-04T06:50:09.058Z,9.23
2022-11-04T06:52:41.999Z,17.93
2022-11-04T06:55:11.198Z,17.10
2022-11-04T06:57:38.815Z,11.77
2022-11-04T07:00:07.539Z,12.73
2022-11-04T07:02:36.468Z,27.98
2022-11-04T07:05:04.787Z,29.97
2022-11-04T07:07:34.066Z,13.98
2022-11-04T07:10:01.577Z,25.73
2022-11-04T07:12:29.080Z,20.65
2022-11-04T07:14:56.627Z,17.23
2022-11-04T07:17:24.162Z,10.88
2022-11-04T07:19:51.688Z,8.75
2022-11-04T07:22:19.204Z,19.67
2022-11-04T07:24:49.390Z,10.45
2022-11-04T07:27:16.939Z,14.13
2022-11-04T07:29:44.526Z,7.15
2022-11-04T07:32:12.051Z,6.82
2022-11-04T07:34:39.564Z,6.93
2022-11-04T07:37:07.078Z,6.43
2022-11-04T07:39:34.611Z,10.48
2022-11-04T07:42:03.469Z,6.47
2022-11-04T07:44:30.994Z,10.75
2022-11-04T07:46:58.510Z,10.10
2022-11-04T07:49:26.426Z,7.00
2022-11-04T07:51:53.963Z,7.93
2022-11-04T07:54:21.485Z,9.07
2022-11-04T07:56:48.998Z,7.03
2022-11-04T07:59:17.871Z,8.18
2022-11-04T08:01:45.439Z,8.75
2022-11-04T08:04:13.070Z,7.53
2022-11-04T08:06:40.594Z,6.15
2022-11-04T08:09:08.193Z,7.53
2022-11-04T08:11:35.797Z,6.87
2022-11-04T08:14:04.991Z,12.75
2022-11-04T08:16:34.673Z,8.83
2022-11-04T08:19:02.804Z,19.90
2022-11-04T08:21:31.286Z,8.18
2022-11-04T08:23:58.803Z,12.43
2022-11-04T08:26:26.718Z,12.35
2022-11-04T08:28:54.416Z,19.98
2022-11-04T08:31:24.671Z,9.98
2022-11-04T08:33:54.216Z,17.10
2022-11-04T08:36:24.201Z,27.38
2022-11-04T08:38:52.531Z,30.63
2022-11-04T08:41:22.121Z,12.13
2022-11-04T08:43:49.721Z,19.50
2022-11-04T08:46:17.483Z,18.07
2022-11-04T08:48:45.875Z,24.67
2022-11-04T08:51:17.263Z,31.58
2022-11-04T08:53:44.943Z,14.20
2022-11-04T08:56:14.566Z,15.97
2022-11-04T08:58:42.362Z,24.45
2022-11-04T09:01:11.043Z,14.25
2022-11-04T09:03:39.531Z,7.00
2022-11-04T09:06:07.465Z,11.40
2022-11-04T09:08:37.890Z,11.70
2022-11-04T09:11:07.828Z,27.85
2022-11-04T09:13:39.378Z,18.60
2022-11-04T09:16:09.142Z,9.48
2022-11-04T09:18:36.873Z,4.32
2022-11-04T09:21:06.546Z,4.22
2022-11-04T09:23:34.078Z,4.05
2022-11-04T09:26:07.739Z,4.45
2022-11-04T09:28:35.292Z,3.03
2022-11-04T09:31:06.366Z,2.95
2022-11-04T09:33:34.192Z,3.05
2022-11-04T09:36:01.781Z,4.35
2022-11-04T09:38:29.298Z,3.65
2022-11-04T09:40:57.311Z,3.83
2022-11-04T09:43:38.880Z,4.60
2022-11-04T09:46:07.917Z,4.82
2022-11-04T09:48:40.707Z,4.82
2022-11-04T09:51:20.921Z,3.95
2022-11-04T09:54:01.117Z,4.65
2022-11-04T09:56:31.459Z,5.10
2022-11-04T09:59:00.383Z,5.32
2022-11-04T10:01:32.790Z,5.05
2022-11-04T10:04:12.786Z,3.97
2022-11-04T10:06:51.887Z,7.97
2022-11-04T10:09:33.870Z,7.78
2022-11-04T10:12:15.979Z,4.53
2022-11-04T10:15:08.422Z,4.28
2022-11-04T10:17:52.121Z,3.80
2022-11-04T10:20:41.017Z,3.10
2022-11-04T10:23:20.818Z,3.67
2022-11-04T10:25:50.579Z,3.90
2022-11-04T10:28:20.166Z,4.47
2022-11-04T10:30:52.933Z,4.03
2022-11-04T10:33:29.697Z,10.43
2022-11-04T10:36:01.881Z,7.65
2022-11-04T10:38:36.583Z,6.32
2022-11-04T10:41:17.490Z,6.35
2022-11-04T10:43:45.077Z,4.70
2022-11-04T10:46:29.911Z,4.22
2022-11-04T10:49:05.454Z,4.38
2022-11-04T10:51:32.970Z,4.00
2022-11-04T10:54:03.201Z,4.18
2022-11-04T10:56:39.425Z,4.50
2022-11-04T10:59:20.589Z,4.43
2022-11-04T11:01:54.842Z,4.60
2022-11-04T11:04:27.878Z,5.00
2022-11-04T11:06:56.846Z,4.00
2022-11-04T11:09:29.412Z,3.67
2022-11-04T11:12:00.913Z,3.30
2022-11-04T11:14:37.637Z,4.07
2022-11-04T11:17:24.423Z,4.13
2022-11-04T11:19:56.097Z,4.90
2022-11-04T11:22:35.067Z,4.10
2022-11-04T11:25:15.623Z,3.95
2022-11-04T11:27:48.674Z,4.78
2022-11-04T11:30:28.263Z,5.45
2022-11-04T11:33:08.079Z,5.40
2022-11-04T11:35:42.057Z,5.25
2022-11-04T11:38:19.930Z,3.20
2022-11-04T11:41:18.388Z,3.65
2022-11-04T11:43:41.637Z,4.88
2022-11-04T11:46:10.047Z,7.32
2022-11-04T11:48:43.319Z,5.15
2022-11-04T11:51:14.230Z,4.68
2022-11-04T11:53:59.230Z,5.15
2022-11-04T11:56:52.159Z,4.25
2022-11-04T12:02:29.552Z,4.85
2022-11-04T12:10:51.785Z,3.47
2022-11-04T12:13:28.308Z,3.80
2022-11-04T12:16:21.478Z,3.22
2022-11-04T12:19:10.761Z,4.32
2022-11-04T12:21:47.151Z,4.70
2022-11-04T12:24:27.477Z,4.93
2022-11-04T12:27:02.870Z,5.15
2022-11-04T12:29:41.974Z,5.28
2022-11-04T12:32:21.745Z,4.82
2022-11-04T12:35:02.541Z,4.30
2022-11-04T12:37:41.413Z,4.80
2022-11-04T12:40:17.721Z,4.03
2022-11-04T12:43:00.806Z,4.82
2022-11-04T12:45:40.834Z,4.10
2022-11-04T12:48:12.543Z,5.20
2022-11-04T12:50:55.736Z,5.10
2022-11-04T12:53:44.249Z,5.80
2022-11-04T12:56:13.173Z,4.78
2022-11-04T12:58:50.867Z,4.97
2022-11-04T13:01:22.921Z,4.57
2022-11-04T13:03:55.659Z,4.22
2022-11-04T13:06:28.079Z,4.55
2022-11-04T13:09:02.755Z,3.20
2022-11-04T13:11:33.722Z,3.53
2022-11-04T13:14:07.645Z,3.92
2022-11-04T13:16:41.241Z,4.00
2022-11-04T13:19:21.542Z,3.08
2022-11-04T13:21:49.979Z,4.85
2022-11-04T13:24:30.176Z,3.17
2022-11-04T13:27:01.635Z,3.78
2022-11-04T13:29:32.526Z,4.93
2022-11-04T13:32:06.585Z,5.32
2022-11-04T13:34:40.913Z,5.30
2022-11-04T13:37:18.218Z,3.90
2022-11-04T13:39:52.573Z,3.63
2022-11-04T13:42:34.114Z,3.80
2022-11-04T13:45:11.077Z,3.45
2022-11-04T13:47:48.484Z,3.20
2022-11-04T13:50:36.520Z,2.40
2022-11-04T13:53:05.189Z,2.40
2022-11-04T13:55:35.444Z,2.25
2022-11-04T13:58:05.975Z,2.17
2022-11-04T14:00:34.319Z,2.55
2022-11-04T14:03:22.350Z,2.35
2022-11-04T14:06:05.270Z,2.33
2022-11-04T14:08:33.369Z,2.22
2022-11-04T14:11:12.951Z,2.92
2022-11-04T14:14:02.335Z,2.65
2022-11-04T14:16:41.572Z,2.63
2022-11-04T14:19:57.225Z,2.50
2022-11-04T14:22:38.765Z,2.75
2022-11-04T14:25:25.817Z,2.45
2022-11-04T14:27:55.542Z,2.85
2022-11-04T14:30:33.781Z,3.50
2022-11-04T14:33:04.553Z,4.03
2022-11-04T14:35:33.041Z,4.97
2022-11-04T14:38:07.335Z,3.70
2022-11-04T14:40:52.147Z,3.20
2022-11-04T14:43:31.033Z,4.65
2022-11-04T14:46:00.808Z,4.57
2022-11-04T14:48:29.662Z,4.30
2022-11-04T14:50:58.164Z,3.40
2022-11-04T14:53:32.800Z,4.25
2022-11-04T14:56:15.000Z,5.10
2022-11-04T14:58:56.068Z,4.30
2022-11-04T15:01:26.532Z,3.92
2022-11-04T15:04:13.349Z,3.65
2022-11-04T15:06:54.387Z,4.32
2022-11-04T15:09:26.273Z,4.20
2022-11-04T15:12:20.477Z,3.67
2022-11-04T15:14:48.340Z,3.00
2022-11-04T15:17:20.714Z,2.83
2022-11-04T15:19:51.539Z,3.20
2022-11-04T15:22:19.982Z,3.17
2022-11-04T15:24:50.545Z,4.30
2022-11-04T15:27:20.653Z,2.97
2022-11-04T15:29:54.853Z,2.97
2022-11-04T15:32:22.635Z,3.13
2022-11-04T15:34:50.757Z,3.75
2022-11-04T15:37:18.538Z,4.75
2022-11-04T15:39:48.495Z,3.72
2022-11-04T15:42:42.900Z,5.90
2022-11-04T15:45:29.018Z,3.28
2022-11-04T15:48:31.214Z,3.85
2022-11-04T15:51:11.386Z,4.20
2022-11-04T15:53:49.724Z,4.33
2022-11-04T15:56:18.686Z,4.38
2022-11-04T15:58:48.155Z,3.90
2022-11-04T16:01:17.105Z,3.28
2022-11-04T16:03:51.079Z,3.22
2022-11-04T16:06:19.016Z,3.55
2022-11-04T16:09:01.507Z,3.28
2022-11-04T16:11:29.201Z,3.50
2022-11-04T16:14:15.455Z,3.25
2022-11-04T16:16:48.536Z,3.75
2022-11-04T16:19:23.247Z,3.45
2022-11-04T16:21:59.890Z,4.00
2022-11-04T16:24:30.608Z,3.90
2022-11-04T16:26:58.400Z,4.32
2022-11-04T16:29:30.186Z,4.63
2022-11-04T16:32:18.067Z,4.38
2022-11-04T16:34:46.092Z,3.80
2022-11-04T16:37:13.710Z,4.28
2022-11-04T16:39:41.650Z,4.20
2022-11-04T16:42:12.434Z,4.60
2022-11-04T16:44:41.563Z,4.53
2022-11-04T16:47:11.482Z,4.05
2022-11-04T16:49:39.011Z,5.00
2022-11-04T16:52:14.119Z,3.97
2022-11-04T16:54:42.115Z,4.15
2022-11-04T16:57:13.839Z,4.57
2022-11-04T16:59:43.316Z,4.20
2022-11-04T17:02:24.255Z,3.60
2022-11-04T17:04:51.926Z,3.55
2022-11-04T17:07:19.508Z,4.60
2022-11-04T17:09:47.147Z,9.27
2022-11-04T17:12:14.689Z,8.68
2022-11-04T17:14:43.641Z,6.23
2022-11-04T17:17:12.011Z,8.35
2022-11-04T17:19:39.608Z,10.10
2022-11-04T17:22:08.927Z,7.60
2022-11-04T17:24:37.421Z,6.72
2022-11-04T17:27:06.396Z,4.55
2022-11-04T17:29:33.940Z,4.47
2022-11-04T17:32:02.892Z,5.32
2022-11-04T17:34:30.468Z,5.30
2022-11-04T17:36:57.982Z,7.25
2022-11-04T17:39:25.505Z,5.43
2022-11-04T17:42:10.817Z,6.68
2022-11-04T17:44:38.351Z,8.90
2022-11-04T17:47:07.203Z,7.57
2022-11-04T17:49:37.601Z,8.35
2022-11-04T17:52:05.356Z,8.13
2022-11-04T17:54:33.134Z,6.60
2022-11-04T17:57:00.898Z,4.68
2022-11-04T17:59:33.841Z,6.07
2022-11-04T18:02:04.057Z,5.90
2022-11-04T18:04:33.143Z,5.82
2022-11-04T18:07:02.985Z,7.32
2022-11-04T18:09:31.030Z,7.88
2022-11-04T18:12:16.522Z,7.88
2022-11-04T18:14:44.078Z,7.13
2022-11-04T18:17:11.705Z,12.35
2022-11-04T18:19:40.943Z,17.52
2022-11-04T18:22:08.489Z,23.45
2022-11-04T18:24:36.273Z,18.00
2022-11-04T18:27:03.890Z,8.90
2022-11-04T18:29:31.637Z,8.52
2022-11-04T18:31:59.164Z,9.23
2022-11-04T18:34:26.666Z,10.07
2022-11-04T18:36:56.763Z,10.87
2022-11-04T18:39:24.481Z,25.17
2022-11-04T18:41:52.062Z,12.97
2022-11-04T18:44:21.362Z,12.68
2022-11-04T18:46:49.690Z,14.83
2022-11-04T18:49:18.133Z,26.67
2022-11-04T18:51:45.786Z,33.23
2022-11-04T18:54:15.683Z,14.83
2022-11-04T18:56:43.795Z,15.30
2022-11-04T18:59:11.700Z,28.93
2022-11-04T19:01:39.617Z,27.20
2022-11-04T19:04:07.382Z,22.47
2022-11-04T19:06:36.474Z,17.17
2022-11-04T19:09:25.208Z,28.03
2022-11-04T19:12:10.080Z,27.50
2022-11-04T19:14:38.458Z,22.80
2022-11-04T19:17:06.013Z,27.70
2022-11-04T19:19:33.528Z,19.03
2022-11-04T19:22:01.091Z,21.23
2022-11-04T19:24:29.030Z,11.73
2022-11-04T19:26:57.905Z,16.15
2022-11-04T19:29:25.933Z,11.57
2022-11-04T19:31:53.443Z,12.40
2022-11-04T19:34:21.089Z,12.20
2022-11-04T19:36:48.891Z,9.90
2022-11-04T19:39:16.506Z,10.70
2022-11-04T19:42:01.473Z,10.47
2022-11-04T19:44:32.372Z,11.50
2022-11-04T19:47:00.038Z,11.52
2022-11-04T19:49:31.085Z,10.77
2022-11-04T19:51:58.805Z,11.02
2022-11-04T19:54:26.665Z,10.47
2022-11-04T19:56:54.236Z,14.53
2022-11-04T19:59:21.817Z,9.53
2022-11-04T20:01:50.824Z,12.57
2022-11-04T20:04:18.813Z,9.07
2022-11-04T20:06:46.357Z,11.67
2022-11-04T20:09:14.088Z,9.93
2022-11-04T20:11:56.289Z,9.67
2022-11-04T20:14:23.846Z,22.60
2022-11-04T20:16:52.779Z,34.77
2022-11-04T20:19:22.954Z,33.17
2022-11-04T20:21:51.700Z,24.47
2022-11-04T20:24:19.267Z,38.97
2022-11-04T20:26:47.597Z,12.13
2022-11-04T20:29:16.531Z,10.93
2022-11-04T20:31:45.482Z,7.33
2022-11-04T20:34:15.092Z,7.37
2022-11-04T20:36:42.985Z,7.93
2022-11-04T20:39:14.489Z,7.50
2022-11-04T20:41:42.275Z,7.03
2022-11-04T20:44:11.124Z,7.20
2022-11-04T20:46:38.762Z,6.87
2022-11-04T20:49:06.342Z,7.23
2022-11-04T20:51:37.451Z,7.60
2022-11-04T20:54:07.108Z,6.17
2022-11-04T20:56:36.814Z,6.83
2022-11-04T20:59:05.969Z,7.87
2022-11-04T21:01:35.742Z,7.23
2022-11-04T21:04:06.299Z,8.40
2022-11-04T21:06:38.100Z,7.90
2022-11-04T21:09:06.689Z,7.83
2022-11-04T21:11:35.118Z,7.23
2022-11-04T21:14:02.714Z,8.23
2022-11-04T21:16:31.167Z,6.23
2022-11-04T21:18:59.616Z,9.00
2022-11-04T21:21:28.229Z,9.67
2022-11-04T21:24:01.230Z,9.53
2022-11-04T21:26:31.265Z,8.60
2022-11-04T21:29:01.329Z,7.17
2022-11-04T21:31:30.540Z,12.20
2022-11-04T21:33:59.229Z,9.07
2022-11-04T21:36:26.847Z,7.73
2022-11-04T21:38:54.434Z,8.90
2022-11-04T21:41:25.899Z,12.50
2022-11-04T21:43:56.647Z,8.00
2022-11-04T21:46:24.756Z,15.87
2022-11-04T21:48:52.299Z,14.13
2022-11-04T21:51:21.877Z,10.93
2022-11-04T21:53:49.864Z,9.60
2022-11-04T21:56:19.454Z,18.57
2022-11-04T21:58:48.671Z,15.10
2022-11-04T22:01:18.635Z,9.70
2022-11-04T22:03:50.835Z,9.57
2022-11-04T22:06:18.752Z,8.70
2022-11-04T22:08:49.424Z,8.37
2022-11-04T22:11:19.834Z,10.20
2022-11-04T22:13:48.798Z,8.83
2022-11-04T22:16:19.285Z,7.03
2022-11-04T22:18:47.631Z,6.70
2022-11-04T22:21:17.905Z,6.17
2022-11-04T22:23:46.252Z,7.50
2022-11-04T22:26:16.567Z,6.87
2022-11-04T22:28:44.103Z,7.37
2022-11-04T22:31:16.016Z,7.67
2022-11-04T22:33:43.849Z,7.30
2022-11-04T22:36:12.354Z,7.53
2022-11-04T22:38:41.623Z,7.60
2022-11-04T22:41:11.592Z,7.93
2022-11-04T22:43:39.615Z,7.87
2022-11-04T22:46:09.336Z,7.30
2022-11-04T22:48:38.667Z,8.80
2022-11-04T22:51:06.838Z,7.87
2022-11-04T22:53:34.375Z,8.53
2022-11-04T22:56:02.969Z,7.40
2022-11-04T22:58:30.905Z,7.57
2022-11-04T23:01:00.273Z,6.83
2022-11-04T23:03:28.289Z,6.37
2022-11-04T23:05:59.079Z,6.43
2022-11-04T23:08:28.003Z,5.90
2022-11-04T23:11:15.848Z,6.20
2022-11-04T23:14:08.231Z,5.80
2022-11-04T23:16:53.229Z,5.67
2022-11-04T23:19:20.780Z,5.60
2022-11-04T23:22:07.049Z,4.30
2022-11-04T23:24:52.299Z,4.60
2022-11-04T23:27:34.228Z,3.50
2022-11-04T23:30:19.325Z,3.13
2022-11-04T23:32:46.861Z,2.70
2022-11-04T23:35:32.264Z,2.70
2022-11-04T23:38:01.411Z,2.80
2022-11-04T23:40:31.094Z,2.90
2022-11-04T23:42:57.883Z,2.77
2022-11-04T23:45:42.931Z,2.87
2022-11-04T23:48:28.930Z,2.97
2022-11-04T23:51:15.393Z,3.40
2022-11-04T23:54:02.061Z,3.97
2022-11-04T23:56:47.601Z,3.43
2022-11-04T23:59:34.839Z,3.30
